KSOW/SOW METAR and TAF weather

Enter ICAO airport designator
Station Type Date Time Source
KSOW METAR 2021/09/25 03:35 UTC NOAA

KSOW 250335Z AUTO 18010KT 10SM OVC110 18/06 A3025 RMK AO2


Station Type Date Time Source
KSOW Decoded METAR 2021/09/25 03:35 UTC NOAA

Show Low, Show Low Regional Airport, AZ, United States (KSOW) 34-15-55N 110-00-20W
Sep 24, 2021 - 11:35 PM EDT / 2021.09.25 0335 UTC
Wind: from the S (180 degrees) at 12 MPH (10 KT):0
Visibility: 10 mile(s):0
Sky conditions: overcast
Temperature: 64 F (18 C)
Dew Point: 42 F (6 C)
Relative Humidity: 45%
Pressure (altimeter): 30.25 in. Hg (1024 hPa)
ob: KSOW 250335Z AUTO 18010KT 10SM OVC110 18/06 A3025 RMK AO2
cycle: 3

Station Type Date Time Source
KSOW TAF UTC NOAA

Error!

Example: see airport list